sensor_id;sensor_type;location;lat;lon;timestamp;P1;durP1;ratioP1;P2;durP2;ratioP2
15285;SDS011;7744;52.172;10.668;2022-10-16T00:01:36;1.50;;;1.40;;
15285;SDS011;7744;52.172;10.668;2022-10-16T00:04:02;1.50;;;1.40;;
15285;SDS011;7744;52.172;10.668;2022-10-16T00:06:29;2.15;;;1.50;;
15285;SDS011;7744;52.172;10.668;2022-10-16T00:08:55;2.45;;;1.40;;
15285;SDS011;7744;52.172;10.668;2022-10-16T00:11:23;1.40;;;1.30;;
15285;SDS011;7744;52.172;10.668;2022-10-16T00:13:50;1.60;;;1.50;;
15285;SDS011;7744;52.172;10.668;2022-10-16T00:16:19;1.52;;;1.40;;
15285;SDS011;7744;52.172;10.668;2022-10-16T00:18:44;1.50;;;1.40;;
15285;SDS011;7744;52.172;10.668;2022-10-16T00:21:14;2.00;;;1.42;;
15285;SDS011;7744;52.172;10.668;2022-10-16T00:23:42;2.58;;;1.50;;
15285;SDS011;7744;52.172;10.668;2022-10-16T00:26:09;1.50;;;1.40;;
15285;SDS011;7744;52.172;10.668;2022-10-16T00:28:39;2.08;;;1.40;;
15285;SDS011;7744;52.172;10.668;2022-10-16T00:31:06;1.42;;;1.33;;
15285;SDS011;7744;52.172;10.668;2022-10-16T00:33:36;1.90;;;1.65;;
15285;SDS011;7744;52.172;10.668;2022-10-16T00:36:04;1.60;;;1.40;;
15285;SDS011;7744;52.172;10.668;2022-10-16T00:38:31;1.40;;;1.30;;
15285;SDS011;7744;52.172;10.668;2022-10-16T00:40:57;1.55;;;1.35;;
15285;SDS011;7744;52.172;10.668;2022-10-16T00:43:33;1.80;;;1.70;;
15285;SDS011;7744;52.172;10.668;2022-10-16T00:46:19;2.40;;;1.70;;
15285;SDS011;7744;52.172;10.668;2022-10-16T00:51:22;2.75;;;1.50;;
15285;SDS011;7744;52.172;10.668;2022-10-16T00:53:52;2.00;;;1.60;;
15285;SDS011;7744;52.172;10.668;2022-10-16T00:56:19;1.80;;;1.70;;
15285;SDS011;7744;52.172;10.668;2022-10-16T00:58:45;2.63;;;1.60;;
15285;SDS011;7744;52.172;10.668;2022-10-16T01:01:11;2.53;;;2.03;;
15285;SDS011;7744;52.172;10.668;2022-10-16T01:03:37;1.92;;;1.80;;
15285;SDS011;7744;52.172;10.668;2022-10-16T01:08:32;2.40;;;2.20;;
15285;SDS011;7744;52.172;10.668;2022-10-16T01:11:11;1.90;;;1.80;;
15285;SDS011;7744;52.172;10.668;2022-10-16T01:13:48;3.67;;;1.90;;
15285;SDS011;7744;52.172;10.668;2022-10-16T01:19:12;2.38;;;2.28;;
15285;SDS011;7744;52.172;10.668;2022-10-16T01:21:44;2.10;;;1.90;;
15285;SDS011;7744;52.172;10.668;2022-10-16T01:24:26;2.40;;;2.20;;
15285;SDS011;7744;52.172;10.668;2022-10-16T01:32:38;1.90;;;1.80;;
15285;SDS011;7744;52.172;10.668;2022-10-16T01:35:18;2.03;;;1.67;;
15285;SDS011;7744;52.172;10.668;2022-10-16T01:38:34;1.90;;;1.70;;
15285;SDS011;7744;52.172;10.668;2022-10-16T01:40:44;1.77;;;1.67;;
15285;SDS011;7744;52.172;10.668;2022-10-16T01:43:15;2.00;;;1.80;;
15285;SDS011;7744;52.172;10.668;2022-10-16T01:45:47;1.90;;;1.80;;
15285;SDS011;7744;52.172;10.668;2022-10-16T01:48:16;1.67;;;1.58;;
15285;SDS011;7744;52.172;10.668;2022-10-16T01:50:44;1.70;;;1.60;;
15285;SDS011;7744;52.172;10.668;2022-10-16T01:53:13;1.77;;;1.67;;
15285;SDS011;7744;52.172;10.668;2022-10-16T01:55:43;2.00;;;1.80;;
15285;SDS011;7744;52.172;10.668;2022-10-16T01:58:11;2.10;;;2.00;;
15285;SDS011;7744;52.172;10.668;2022-10-16T02:00:39;1.95;;;1.85;;
15285;SDS011;7744;52.172;10.668;2022-10-16T02:03:08;1.90;;;1.80;;
15285;SDS011;7744;52.172;10.668;2022-10-16T02:05:55;2.00;;;1.90;;
15285;SDS011;7744;52.172;10.668;2022-10-16T02:08:22;1.90;;;1.80;;
15285;SDS011;7744;52.172;10.668;2022-10-16T02:10:50;2.33;;;1.88;;
15285;SDS011;7744;52.172;10.668;2022-10-16T02:13:23;1.85;;;1.75;;
15285;SDS011;7744;52.172;10.668;2022-10-16T02:15:55;2.38;;;2.03;;
15285;SDS011;7744;52.172;10.668;2022-10-16T02:18:20;1.88;;;1.77;;
15285;SDS011;7744;52.172;10.668;2022-10-16T02:20:55;1.85;;;1.50;;
15285;SDS011;7744;52.172;10.668;2022-10-16T02:23:29;1.80;;;1.70;;
15285;SDS011;7744;52.172;10.668;2022-10-16T02:26:09;2.20;;;1.80;;
15285;SDS011;7744;52.172;10.668;2022-10-16T02:28:42;1.92;;;1.75;;
15285;SDS011;7744;52.172;10.668;2022-10-16T02:31:11;1.88;;;1.67;;
15285;SDS011;7744;52.172;10.668;2022-10-16T02:33:41;1.50;;;1.40;;
15285;SDS011;7744;52.172;10.668;2022-10-16T02:36:08;2.50;;;1.73;;
15285;SDS011;7744;52.172;10.668;2022-10-16T02:38:34;2.05;;;1.80;;
15285;SDS011;7744;52.172;10.668;2022-10-16T02:41:01;1.90;;;1.80;;
15285;SDS011;7744;52.172;10.668;2022-10-16T02:43:26;2.17;;;1.55;;
15285;SDS011;7744;52.172;10.668;2022-10-16T02:45:52;3.08;;;1.70;;
15285;SDS011;7744;52.172;10.668;2022-10-16T02:48:18;2.22;;;1.60;;
15285;SDS011;7744;52.172;10.668;2022-10-16T02:50:43;1.65;;;1.50;;
15285;SDS011;7744;52.172;10.668;2022-10-16T02:53:09;1.90;;;1.50;;
15285;SDS011;7744;52.172;10.668;2022-10-16T02:55:34;2.28;;;2.05;;
15285;SDS011;7744;52.172;10.668;2022-10-16T02:58:00;2.50;;;1.70;;
15285;SDS011;7744;52.172;10.668;2022-10-16T03:00:29;1.85;;;1.60;;
15285;SDS011;7744;52.172;10.668;2022-10-16T03:02:54;1.80;;;1.70;;
15285;SDS011;7744;52.172;10.668;2022-10-16T03:05:20;2.30;;;1.70;;
15285;SDS011;7744;52.172;10.668;2022-10-16T03:07:45;1.90;;;1.60;;
15285;SDS011;7744;52.172;10.668;2022-10-16T03:10:11;1.70;;;1.60;;
15285;SDS011;7744;52.172;10.668;2022-10-16T03:12:37;1.80;;;1.70;;
15285;SDS011;7744;52.172;10.668;2022-10-16T03:15:02;3.38;;;1.60;;
15285;SDS011;7744;52.172;10.668;2022-10-16T03:17:28;2.92;;;1.42;;
15285;SDS011;7744;52.172;10.668;2022-10-16T03:19:54;2.75;;;1.90;;
15285;SDS011;7744;52.172;10.668;2022-10-16T03:22:19;2.03;;;1.35;;
15285;SDS011;7744;52.172;10.668;2022-10-16T03:24:45;2.08;;;1.50;;
15285;SDS011;7744;52.172;10.668;2022-10-16T03:27:11;1.63;;;1.45;;
15285;SDS011;7744;52.172;10.668;2022-10-16T03:29:36;2.78;;;1.75;;
15285;SDS011;7744;52.172;10.668;2022-10-16T03:32:02;1.80;;;1.40;;
15285;SDS011;7744;52.172;10.668;2022-10-16T03:34:27;3.03;;;1.67;;
15285;SDS011;7744;52.172;10.668;2022-10-16T03:36:53;1.50;;;1.40;;
15285;SDS011;7744;52.172;10.668;2022-10-16T03:39:19;2.25;;;1.27;;
15285;SDS011;7744;52.172;10.668;2022-10-16T03:41:44;1.58;;;1.48;;
15285;SDS011;7744;52.172;10.668;2022-10-16T03:44:11;2.97;;;1.75;;
15285;SDS011;7744;52.172;10.668;2022-10-16T03:46:37;1.70;;;1.60;;
15285;SDS011;7744;52.172;10.668;2022-10-16T03:49:02;1.70;;;1.60;;
15285;SDS011;7744;52.172;10.668;2022-10-16T03:51:28;2.97;;;1.70;;
15285;SDS011;7744;52.172;10.668;2022-10-16T03:53:54;2.05;;;1.58;;
15285;SDS011;7744;52.172;10.668;2022-10-16T03:56:19;3.83;;;1.90;;
15285;SDS011;7744;52.172;10.668;2022-10-16T03:58:45;1.50;;;1.40;;
15285;SDS011;7744;52.172;10.668;2022-10-16T04:01:10;2.75;;;1.92;;
15285;SDS011;7744;52.172;10.668;2022-10-16T04:03:36;2.10;;;1.88;;
15285;SDS011;7744;52.172;10.668;2022-10-16T04:06:01;5.07;;;2.42;;
15285;SDS011;7744;52.172;10.668;2022-10-16T04:08:27;2.90;;;2.47;;
15285;SDS011;7744;52.172;10.668;2022-10-16T04:10:53;3.17;;;2.70;;
15285;SDS011;7744;52.172;10.668;2022-10-16T04:13:18;5.13;;;3.58;;
15285;SDS011;7744;52.172;10.668;2022-10-16T04:15:44;3.70;;;3.15;;
15285;SDS011;7744;52.172;10.668;2022-10-16T04:18:10;3.97;;;3.50;;
15285;SDS011;7744;52.172;10.668;2022-10-16T04:20:36;4.03;;;3.08;;
15285;SDS011;7744;52.172;10.668;2022-10-16T04:23:02;4.85;;;3.72;;
15285;SDS011;7744;52.172;10.668;2022-10-16T04:25:28;4.13;;;3.72;;
15285;SDS011;7744;52.172;10.668;2022-10-16T04:27:53;3.85;;;3.30;;
15285;SDS011;7744;52.172;10.668;2022-10-16T04:30:20;4.13;;;3.15;;
15285;SDS011;7744;52.172;10.668;2022-10-16T04:32:49;3.20;;;3.00;;
15285;SDS011;7744;52.172;10.668;2022-10-16T04:35:16;2.83;;;2.63;;
15285;SDS011;7744;52.172;10.668;2022-10-16T04:37:43;3.40;;;3.10;;
15285;SDS011;7744;52.172;10.668;2022-10-16T04:40:09;3.88;;;3.30;;
15285;SDS011;7744;52.172;10.668;2022-10-16T04:42:34;3.15;;;2.95;;
15285;SDS011;7744;52.172;10.668;2022-10-16T04:45:00;3.33;;;3.05;;
15285;SDS011;7744;52.172;10.668;2022-10-16T04:47:25;4.85;;;3.65;;
15285;SDS011;7744;52.172;10.668;2022-10-16T04:49:51;4.03;;;3.63;;
15285;SDS011;7744;52.172;10.668;2022-10-16T04:52:17;6.68;;;3.42;;
15285;SDS011;7744;52.172;10.668;2022-10-16T04:54:43;4.47;;;3.35;;
15285;SDS011;7744;52.172;10.668;2022-10-16T04:57:10;3.90;;;3.60;;
15285;SDS011;7744;52.172;10.668;2022-10-16T04:59:36;7.50;;;3.30;;
15285;SDS011;7744;52.172;10.668;2022-10-16T05:02:02;3.50;;;3.20;;
15285;SDS011;7744;52.172;10.668;2022-10-16T05:04:28;3.50;;;2.92;;
15285;SDS011;7744;52.172;10.668;2022-10-16T05:06:53;4.20;;;3.80;;
15285;SDS011;7744;52.172;10.668;2022-10-16T05:09:19;4.15;;;3.78;;
15285;SDS011;7744;52.172;10.668;2022-10-16T05:11:45;3.90;;;3.60;;
15285;SDS011;7744;52.172;10.668;2022-10-16T05:14:11;3.80;;;3.50;;
15285;SDS011;7744;52.172;10.668;2022-10-16T05:16:36;3.72;;;3.40;;
15285;SDS011;7744;52.172;10.668;2022-10-16T05:19:02;4.22;;;3.88;;
15285;SDS011;7744;52.172;10.668;2022-10-16T05:21:28;3.88;;;3.58;;
15285;SDS011;7744;52.172;10.668;2022-10-16T05:23:53;3.75;;;3.40;;
15285;SDS011;7744;52.172;10.668;2022-10-16T05:26:20;3.75;;;3.45;;
15285;SDS011;7744;52.172;10.668;2022-10-16T05:28:46;4.25;;;3.83;;
15285;SDS011;7744;52.172;10.668;2022-10-16T05:31:11;5.95;;;3.90;;
15285;SDS011;7744;52.172;10.668;2022-10-16T05:33:37;4.93;;;3.72;;
15285;SDS011;7744;52.172;10.668;2022-10-16T05:36:04;4.00;;;3.65;;
15285;SDS011;7744;52.172;10.668;2022-10-16T05:38:32;4.20;;;3.90;;
15285;SDS011;7744;52.172;10.668;2022-10-16T05:40:58;4.68;;;4.28;;
15285;SDS011;7744;52.172;10.668;2022-10-16T05:43:24;5.63;;;5.10;;
15285;SDS011;7744;52.172;10.668;2022-10-16T05:46:03;5.72;;;4.68;;
15285;SDS011;7744;52.172;10.668;2022-10-16T05:48:29;5.00;;;4.60;;
15285;SDS011;7744;52.172;10.668;2022-10-16T05:50:56;5.50;;;4.90;;
15285;SDS011;7744;52.172;10.668;2022-10-16T05:53:23;4.75;;;4.35;;
15285;SDS011;7744;52.172;10.668;2022-10-16T05:55:54;4.95;;;4.50;;
15285;SDS011;7744;52.172;10.668;2022-10-16T05:58:20;4.47;;;4.07;;
15285;SDS011;7744;52.172;10.668;2022-10-16T06:00:56;4.30;;;3.88;;
15285;SDS011;7744;52.172;10.668;2022-10-16T06:03:23;4.80;;;4.32;;
15285;SDS011;7744;52.172;10.668;2022-10-16T06:05:49;4.40;;;3.90;;
15285;SDS011;7744;52.172;10.668;2022-10-16T06:08:15;4.28;;;3.88;;
15285;SDS011;7744;52.172;10.668;2022-10-16T06:10:41;5.78;;;3.67;;
15285;SDS011;7744;52.172;10.668;2022-10-16T06:13:06;5.95;;;3.60;;
15285;SDS011;7744;52.172;10.668;2022-10-16T06:15:32;4.68;;;4.20;;
15285;SDS011;7744;52.172;10.668;2022-10-16T06:17:58;4.03;;;3.63;;
15285;SDS011;7744;52.172;10.668;2022-10-16T06:20:23;4.95;;;3.50;;
15285;SDS011;7744;52.172;10.668;2022-10-16T06:22:49;4.15;;;3.75;;
15285;SDS011;7744;52.172;10.668;2022-10-16T06:25:15;4.45;;;3.63;;
15285;SDS011;7744;52.172;10.668;2022-10-16T06:27:40;4.15;;;3.75;;
15285;SDS011;7744;52.172;10.668;2022-10-16T06:30:06;5.32;;;4.82;;
15285;SDS011;7744;52.172;10.668;2022-10-16T06:32:32;7.40;;;4.60;;
15285;SDS011;7744;52.172;10.668;2022-10-16T06:34:58;4.75;;;4.30;;
15285;SDS011;7744;52.172;10.668;2022-10-16T06:37:24;5.00;;;4.60;;
15285;SDS011;7744;52.172;10.668;2022-10-16T06:39:50;4.35;;;3.95;;
15285;SDS011;7744;52.172;10.668;2022-10-16T06:42:17;5.47;;;4.20;;
15285;SDS011;7744;52.172;10.668;2022-10-16T06:44:43;4.72;;;4.20;;
15285;SDS011;7744;52.172;10.668;2022-10-16T06:47:09;4.03;;;3.70;;
15285;SDS011;7744;52.172;10.668;2022-10-16T06:49:35;4.80;;;4.05;;
15285;SDS011;7744;52.172;10.668;2022-10-16T06:52:00;3.88;;;3.58;;
15285;SDS011;7744;52.172;10.668;2022-10-16T06:54:26;4.03;;;3.72;;
15285;SDS011;7744;52.172;10.668;2022-10-16T06:56:52;4.30;;;3.85;;
15285;SDS011;7744;52.172;10.668;2022-10-16T06:59:19;3.80;;;3.50;;
15285;SDS011;7744;52.172;10.668;2022-10-16T07:01:46;3.58;;;3.28;;
15285;SDS011;7744;52.172;10.668;2022-10-16T07:04:12;3.63;;;3.33;;
15285;SDS011;7744;52.172;10.668;2022-10-16T07:06:38;3.65;;;3.30;;
15285;SDS011;7744;52.172;10.668;2022-10-16T07:09:05;4.68;;;3.10;;
15285;SDS011;7744;52.172;10.668;2022-10-16T07:11:33;3.53;;;3.20;;
15285;SDS011;7744;52.172;10.668;2022-10-16T07:13:59;3.38;;;3.08;;
15285;SDS011;7744;52.172;10.668;2022-10-16T07:16:26;3.20;;;3.00;;
15285;SDS011;7744;52.172;10.668;2022-10-16T07:18:54;3.78;;;3.47;;
15285;SDS011;7744;52.172;10.668;2022-10-16T07:21:23;3.70;;;2.95;;
15285;SDS011;7744;52.172;10.668;2022-10-16T07:23:51;3.38;;;3.08;;
15285;SDS011;7744;52.172;10.668;2022-10-16T07:26:26;2.90;;;2.70;;
15285;SDS011;7744;52.172;10.668;2022-10-16T07:28:53;3.10;;;2.90;;
15285;SDS011;7744;52.172;10.668;2022-10-16T07:31:20;3.22;;;2.90;;
15285;SDS011;7744;52.172;10.668;2022-10-16T07:33:46;2.40;;;2.20;;
15285;SDS011;7744;52.172;10.668;2022-10-16T07:36:13;2.25;;;2.10;;
15285;SDS011;7744;52.172;10.668;2022-10-16T07:38:40;2.45;;;2.25;;
15285;SDS011;7744;52.172;10.668;2022-10-16T07:41:08;1.80;;;1.70;;
15285;SDS011;7744;52.172;10.668;2022-10-16T07:43:37;2.08;;;1.70;;
15285;SDS011;7744;52.172;10.668;2022-10-16T07:46:03;4.40;;;2.30;;
15285;SDS011;7744;52.172;10.668;2022-10-16T07:48:29;3.10;;;2.20;;
15285;SDS011;7744;52.172;10.668;2022-10-16T07:51:03;1.63;;;1.40;;
15285;SDS011;7744;52.172;10.668;2022-10-16T07:53:30;1.95;;;1.50;;
15285;SDS011;7744;52.172;10.668;2022-10-16T07:55:57;2.00;;;1.65;;
15285;SDS011;7744;52.172;10.668;2022-10-16T07:58:24;1.90;;;1.05;;
15285;SDS011;7744;52.172;10.668;2022-10-16T08:00:50;1.50;;;1.27;;
15285;SDS011;7744;52.172;10.668;2022-10-16T08:03:15;1.10;;;1.00;;
15285;SDS011;7744;52.172;10.668;2022-10-16T08:05:41;1.60;;;1.20;;
15285;SDS011;7744;52.172;10.668;2022-10-16T08:08:10;2.55;;;1.15;;
15285;SDS011;7744;52.172;10.668;2022-10-16T08:10:37;1.80;;;1.13;;
15285;SDS011;7744;52.172;10.668;2022-10-16T08:13:03;0.80;;;0.80;;
15285;SDS011;7744;52.172;10.668;2022-10-16T08:15:29;1.63;;;1.08;;
15285;SDS011;7744;52.172;10.668;2022-10-16T08:17:55;1.20;;;1.10;;
15285;SDS011;7744;52.172;10.668;2022-10-16T08:20:26;1.83;;;1.05;;
15285;SDS011;7744;52.172;10.668;2022-10-16T08:22:53;1.08;;;0.80;;
15285;SDS011;7744;52.172;10.668;2022-10-16T08:25:20;0.98;;;0.90;;
15285;SDS011;7744;52.172;10.668;2022-10-16T08:27:46;1.50;;;0.90;;
15285;SDS011;7744;52.172;10.668;2022-10-16T08:30:12;2.70;;;1.10;;
15285;SDS011;7744;52.172;10.668;2022-10-16T08:32:38;1.52;;;0.80;;
15285;SDS011;7744;52.172;10.668;2022-10-16T08:35:04;0.80;;;0.80;;
15285;SDS011;7744;52.172;10.668;2022-10-16T08:37:30;0.82;;;0.77;;
15285;SDS011;7744;52.172;10.668;2022-10-16T08:39:57;0.88;;;0.70;;
15285;SDS011;7744;52.172;10.668;2022-10-16T08:42:27;1.40;;;0.80;;
15285;SDS011;7744;52.172;10.668;2022-10-16T08:45:02;0.85;;;0.70;;
15285;SDS011;7744;52.172;10.668;2022-10-16T08:50:12;1.17;;;1.08;;
15285;SDS011;7744;52.172;10.668;2022-10-16T08:52:43;2.10;;;0.70;;
15285;SDS011;7744;52.172;10.668;2022-10-16T08:57:54;1.80;;;0.80;;
15285;SDS011;7744;52.172;10.668;2022-10-16T09:00:20;1.55;;;0.80;;
15285;SDS011;7744;52.172;10.668;2022-10-16T09:11:23;1.33;;;1.23;;
15285;SDS011;7744;52.172;10.668;2022-10-16T09:13:59;4.18;;;0.80;;
15285;SDS011;7744;52.172;10.668;2022-10-16T09:16:53;2.03;;;0.90;;
15285;SDS011;7744;52.172;10.668;2022-10-16T09:19:41;1.38;;;0.90;;
15285;SDS011;7744;52.172;10.668;2022-10-16T09:22:14;0.90;;;0.90;;
15285;SDS011;7744;52.172;10.668;2022-10-16T09:24:41;1.98;;;1.00;;
15285;SDS011;7744;52.172;10.668;2022-10-16T09:27:11;1.25;;;0.98;;
15285;SDS011;7744;52.172;10.668;2022-10-16T09:29:37;1.83;;;0.80;;
15285;SDS011;7744;52.172;10.668;2022-10-16T09:32:21;1.98;;;0.70;;
15285;SDS011;7744;52.172;10.668;2022-10-16T09:34:49;0.90;;;0.88;;
15285;SDS011;7744;52.172;10.668;2022-10-16T09:37:18;1.20;;;1.08;;
15285;SDS011;7744;52.172;10.668;2022-10-16T09:39:50;2.90;;;0.80;;
15285;SDS011;7744;52.172;10.668;2022-10-16T09:42:20;1.15;;;0.70;;
15285;SDS011;7744;52.172;10.668;2022-10-16T09:44:52;1.77;;;0.70;;
15285;SDS011;7744;52.172;10.668;2022-10-16T09:47:22;2.95;;;2.72;;
15285;SDS011;7744;52.172;10.668;2022-10-16T09:49:52;2.15;;;1.17;;
15285;SDS011;7744;52.172;10.668;2022-10-16T09:52:31;0.82;;;0.82;;
15285;SDS011;7744;52.172;10.668;2022-10-16T09:54:58;2.08;;;1.10;;
15285;SDS011;7744;52.172;10.668;2022-10-16T09:57:25;2.35;;;1.10;;
15285;SDS011;7744;52.172;10.668;2022-10-16T09:59:54;0.88;;;0.80;;
15285;SDS011;7744;52.172;10.668;2022-10-16T10:02:34;1.98;;;1.10;;
15285;SDS011;7744;52.172;10.668;2022-10-16T10:05:03;1.20;;;0.82;;
15285;SDS011;7744;52.172;10.668;2022-10-16T10:07:31;1.25;;;0.75;;
15285;SDS011;7744;52.172;10.668;2022-10-16T10:09:59;1.50;;;0.85;;
15285;SDS011;7744;52.172;10.668;2022-10-16T10:12:33;1.33;;;1.00;;
15285;SDS011;7744;52.172;10.668;2022-10-16T10:15:06;3.30;;;1.10;;
15285;SDS011;7744;52.172;10.668;2022-10-16T10:17:44;1.10;;;0.85;;
15285;SDS011;7744;52.172;10.668;2022-10-16T10:20:22;0.98;;;0.60;;
15285;SDS011;7744;52.172;10.668;2022-10-16T10:22:52;1.27;;;0.68;;
15285;SDS011;7744;52.172;10.668;2022-10-16T10:33:48;1.30;;;0.80;;
15285;SDS011;7744;52.172;10.668;2022-10-16T10:36:38;3.42;;;2.33;;
15285;SDS011;7744;52.172;10.668;2022-10-16T10:55:42;1.42;;;1.13;;
15285;SDS011;7744;52.172;10.668;2022-10-16T11:01:13;6.80;;;4.60;;
15285;SDS011;7744;52.172;10.668;2022-10-16T11:03:57;4.22;;;2.80;;
15285;SDS011;7744;52.172;10.668;2022-10-16T11:06:48;1.80;;;1.60;;
15285;SDS011;7744;52.172;10.668;2022-10-16T11:09:28;3.70;;;2.03;;
15285;SDS011;7744;52.172;10.668;2022-10-16T11:20:57;3.85;;;1.30;;
15285;SDS011;7744;52.172;10.668;2022-10-16T11:26:19;2.75;;;0.80;;
15285;SDS011;7744;52.172;10.668;2022-10-16T11:28:50;1.95;;;0.88;;
15285;SDS011;7744;52.172;10.668;2022-10-16T11:32:06;1.10;;;0.40;;
15285;SDS011;7744;52.172;10.668;2022-10-16T11:37:04;1.00;;;0.40;;
15285;SDS011;7744;52.172;10.668;2022-10-16T11:39:35;2.53;;;0.60;;
15285;SDS011;7744;52.172;10.668;2022-10-16T11:50:09;3.35;;;0.93;;
15285;SDS011;7744;52.172;10.668;2022-10-16T11:55:17;2.60;;;0.75;;
15285;SDS011;7744;52.172;10.668;2022-10-16T11:57:48;0.55;;;0.35;;
15285;SDS011;7744;52.172;10.668;2022-10-16T12:00:32;0.40;;;0.40;;
15285;SDS011;7744;52.172;10.668;2022-10-16T12:08:19;2.45;;;0.50;;
15285;SDS011;7744;52.172;10.668;2022-10-16T12:10:45;1.45;;;0.50;;
15285;SDS011;7744;52.172;10.668;2022-10-16T12:13:31;1.40;;;0.60;;
15285;SDS011;7744;52.172;10.668;2022-10-16T12:18:37;0.52;;;0.40;;
15285;SDS011;7744;52.172;10.668;2022-10-16T12:21:09;1.33;;;0.50;;
15285;SDS011;7744;52.172;10.668;2022-10-16T12:23:48;1.88;;;0.40;;
15285;SDS011;7744;52.172;10.668;2022-10-16T12:26:23;1.70;;;0.43;;
15285;SDS011;7744;52.172;10.668;2022-10-16T12:28:51;1.15;;;0.57;;
15285;SDS011;7744;52.172;10.668;2022-10-16T12:31:17;1.65;;;0.60;;
15285;SDS011;7744;52.172;10.668;2022-10-16T12:33:52;1.95;;;0.50;;
15285;SDS011;7744;52.172;10.668;2022-10-16T12:36:27;3.13;;;0.50;;
15285;SDS011;7744;52.172;10.668;2022-10-16T12:38:56;2.72;;;0.80;;
15285;SDS011;7744;52.172;10.668;2022-10-16T12:43:56;1.33;;;0.50;;
15285;SDS011;7744;52.172;10.668;2022-10-16T12:46:26;1.77;;;0.47;;
15285;SDS011;7744;52.172;10.668;2022-10-16T12:49:22;1.15;;;0.70;;
15285;SDS011;7744;52.172;10.668;2022-10-16T12:52:01;0.82;;;0.50;;
15285;SDS011;7744;52.172;10.668;2022-10-16T12:54:31;1.55;;;0.63;;
15285;SDS011;7744;52.172;10.668;2022-10-16T13:08:54;1.08;;;0.60;;
15285;SDS011;7744;52.172;10.668;2022-10-16T13:20:21;2.38;;;0.60;;
15285;SDS011;7744;52.172;10.668;2022-10-16T13:28:41;1.13;;;0.60;;
15285;SDS011;7744;52.172;10.668;2022-10-16T13:31:13;1.65;;;1.00;;
15285;SDS011;7744;52.172;10.668;2022-10-16T13:33:46;5.75;;;2.95;;
15285;SDS011;7744;52.172;10.668;2022-10-16T13:36:20;4.65;;;2.92;;
15285;SDS011;7744;52.172;10.668;2022-10-16T13:38:47;4.07;;;1.77;;
15285;SDS011;7744;52.172;10.668;2022-10-16T13:41:15;8.57;;;3.72;;
15285;SDS011;7744;52.172;10.668;2022-10-16T13:43:49;1.65;;;1.10;;
15285;SDS011;7744;52.172;10.668;2022-10-16T13:46:18;5.40;;;3.05;;
15285;SDS011;7744;52.172;10.668;2022-10-16T13:51:29;2.35;;;1.40;;
15285;SDS011;7744;52.172;10.668;2022-10-16T13:53:55;4.10;;;2.60;;
15285;SDS011;7744;52.172;10.668;2022-10-16T13:56:22;7.03;;;4.53;;
15285;SDS011;7744;52.172;10.668;2022-10-16T13:59:02;3.88;;;2.30;;
15285;SDS011;7744;52.172;10.668;2022-10-16T14:01:31;9.07;;;5.07;;
15285;SDS011;7744;52.172;10.668;2022-10-16T14:04:09;5.80;;;3.00;;
15285;SDS011;7744;52.172;10.668;2022-10-16T14:06:36;9.65;;;5.68;;
15285;SDS011;7744;52.172;10.668;2022-10-16T14:12:02;2.20;;;1.08;;
15285;SDS011;7744;52.172;10.668;2022-10-16T14:14:46;4.18;;;2.40;;
15285;SDS011;7744;52.172;10.668;2022-10-16T14:17:15;2.88;;;1.80;;
15285;SDS011;7744;52.172;10.668;2022-10-16T14:19:48;2.92;;;1.48;;
15285;SDS011;7744;52.172;10.668;2022-10-16T14:22:27;2.00;;;1.20;;
15285;SDS011;7744;52.172;10.668;2022-10-16T14:25:01;4.75;;;3.83;;
15285;SDS011;7744;52.172;10.668;2022-10-16T14:27:45;4.75;;;3.65;;
15285;SDS011;7744;52.172;10.668;2022-10-16T14:30:27;1.98;;;1.10;;
15285;SDS011;7744;52.172;10.668;2022-10-16T14:32:54;3.20;;;1.20;;
15285;SDS011;7744;52.172;10.668;2022-10-16T14:35:31;0.77;;;0.70;;
15285;SDS011;7744;52.172;10.668;2022-10-16T14:37:59;3.50;;;1.40;;
15285;SDS011;7744;52.172;10.668;2022-10-16T14:40:28;3.08;;;1.27;;
15285;SDS011;7744;52.172;10.668;2022-10-16T14:42:55;1.70;;;0.85;;
15285;SDS011;7744;52.172;10.668;2022-10-16T14:45:23;1.63;;;0.85;;
15285;SDS011;7744;52.172;10.668;2022-10-16T14:47:53;1.25;;;0.70;;
15285;SDS011;7744;52.172;10.668;2022-10-16T14:50:21;2.25;;;0.70;;
15285;SDS011;7744;52.172;10.668;2022-10-16T14:52:47;0.93;;;0.50;;
15285;SDS011;7744;52.172;10.668;2022-10-16T14:55:13;1.27;;;0.70;;
15285;SDS011;7744;52.172;10.668;2022-10-16T14:57:39;1.83;;;0.60;;
15285;SDS011;7744;52.172;10.668;2022-10-16T15:00:16;3.17;;;0.70;;
15285;SDS011;7744;52.172;10.668;2022-10-16T15:02:47;0.85;;;0.47;;
15285;SDS011;7744;52.172;10.668;2022-10-16T15:05:21;1.83;;;0.73;;
15285;SDS011;7744;52.172;10.668;2022-10-16T15:07:51;1.55;;;0.65;;
15285;SDS011;7744;52.172;10.668;2022-10-16T15:10:18;2.15;;;0.80;;
15285;SDS011;7744;52.172;10.668;2022-10-16T15:12:46;1.50;;;0.55;;
15285;SDS011;7744;52.172;10.668;2022-10-16T15:17:59;1.08;;;0.60;;
15285;SDS011;7744;52.172;10.668;2022-10-16T15:20:35;2.35;;;0.73;;
15285;SDS011;7744;52.172;10.668;2022-10-16T15:23:02;1.70;;;0.55;;
15285;SDS011;7744;52.172;10.668;2022-10-16T15:25:33;1.55;;;0.80;;
15285;SDS011;7744;52.172;10.668;2022-10-16T15:28:06;2.70;;;0.60;;
15285;SDS011;7744;52.172;10.668;2022-10-16T15:30:33;1.40;;;0.80;;
15285;SDS011;7744;52.172;10.668;2022-10-16T15:32:59;1.17;;;0.60;;
15285;SDS011;7744;52.172;10.668;2022-10-16T15:35:25;0.50;;;0.50;;
15285;SDS011;7744;52.172;10.668;2022-10-16T15:37:50;1.65;;;0.60;;
15285;SDS011;7744;52.172;10.668;2022-10-16T15:40:17;1.08;;;0.57;;
15285;SDS011;7744;52.172;10.668;2022-10-16T15:42:44;0.50;;;0.50;;
15285;SDS011;7744;52.172;10.668;2022-10-16T15:45:10;0.90;;;0.70;;
15285;SDS011;7744;52.172;10.668;2022-10-16T15:47:36;1.13;;;0.82;;
15285;SDS011;7744;52.172;10.668;2022-10-16T15:50:02;0.77;;;0.70;;
15285;SDS011;7744;52.172;10.668;2022-10-16T15:52:29;0.73;;;0.73;;
15285;SDS011;7744;52.172;10.668;2022-10-16T15:54:56;1.00;;;0.85;;
15285;SDS011;7744;52.172;10.668;2022-10-16T15:57:22;2.88;;;1.75;;
15285;SDS011;7744;52.172;10.668;2022-10-16T15:59:48;3.25;;;1.88;;
15285;SDS011;7744;52.172;10.668;2022-10-16T16:02:14;1.88;;;1.25;;
15285;SDS011;7744;52.172;10.668;2022-10-16T16:04:40;1.85;;;1.38;;
15285;SDS011;7744;52.172;10.668;2022-10-16T16:07:06;1.17;;;1.05;;
15285;SDS011;7744;52.172;10.668;2022-10-16T16:09:35;1.98;;;1.30;;
15285;SDS011;7744;52.172;10.668;2022-10-16T16:12:00;1.17;;;1.08;;
15285;SDS011;7744;52.172;10.668;2022-10-16T16:14:26;24.15;;;17.75;;
15285;SDS011;7744;52.172;10.668;2022-10-16T16:16:55;8.63;;;7.10;;
15285;SDS011;7744;52.172;10.668;2022-10-16T16:19:20;23.30;;;18.10;;
15285;SDS011;7744;52.172;10.668;2022-10-16T16:21:49;9.90;;;7.65;;
15285;SDS011;7744;52.172;10.668;2022-10-16T16:24:15;12.38;;;9.27;;
15285;SDS011;7744;52.172;10.668;2022-10-16T16:26:41;1.90;;;1.60;;
15285;SDS011;7744;52.172;10.668;2022-10-16T16:29:08;2.15;;;1.67;;
15285;SDS011;7744;52.172;10.668;2022-10-16T16:31:39;1.73;;;1.60;;
15285;SDS011;7744;52.172;10.668;2022-10-16T16:34:05;0.93;;;0.70;;
15285;SDS011;7744;52.172;10.668;2022-10-16T16:36:32;1.63;;;1.20;;
15285;SDS011;7744;52.172;10.668;2022-10-16T16:38:58;1.77;;;1.67;;
15285;SDS011;7744;52.172;10.668;2022-10-16T16:41:24;2.65;;;1.70;;
15285;SDS011;7744;52.172;10.668;2022-10-16T16:43:52;1.23;;;1.13;;
15285;SDS011;7744;52.172;10.668;2022-10-16T16:46:19;2.63;;;1.50;;
15285;SDS011;7744;52.172;10.668;2022-10-16T16:48:45;4.25;;;1.60;;
15285;SDS011;7744;52.172;10.668;2022-10-16T16:51:13;1.73;;;1.63;;
15285;SDS011;7744;52.172;10.668;2022-10-16T16:53:44;2.08;;;1.90;;
15285;SDS011;7744;52.172;10.668;2022-10-16T16:56:12;2.20;;;1.77;;
15285;SDS011;7744;52.172;10.668;2022-10-16T16:58:38;2.00;;;1.80;;
15285;SDS011;7744;52.172;10.668;2022-10-16T17:01:04;2.10;;;1.50;;
15285;SDS011;7744;52.172;10.668;2022-10-16T17:03:31;0.77;;;0.77;;
15285;SDS011;7744;52.172;10.668;2022-10-16T17:06:05;2.20;;;1.23;;